Time;durP1;ratioP1;P1;durP2;ratioP2;P2;SDS_P1;SDS_P2;PMS_P1;PMS_P2;Temp;Humidity;BMP_temperature;BMP_pressure;BME280_temperature;BME280_humidity;BME280_pressure;Samples;Min_cycle;Max_cycle;Signal;HPM_P1;HPM_P2
2021/11/21 00:02:00;;;;;;;14.57;12.50;;;;;;;;;;10297780;28;20466;-64
2021/11/21 00:06:59;;;;;;;14.77;12.30;;;;;;;;;;10301442;28;20060;-64
2021/11/21 00:11:58;;;;;;;15.88;12.52;;;;;;;;;;10301023;28;20128;-64
2021/11/21 00:17:01;;;;;;;13.68;11.43;;;;;;;;;;10309707;28;20072;-65
2021/11/21 00:21:59;;;;;;;13.93;12.23;;;;;;;;;;10318147;28;20068;-65
2021/11/21 00:26:58;;;;;;;14.18;11.68;;;;;;;;;;10309756;28;20060;-65
2021/11/21 00:31:58;;;;;;;11.63;10.40;;;;;;;;;;10306256;28;20064;-65
2021/11/21 00:36:58;;;;;;;12.50;11.20;;;;;;;;;;10308800;28;20540;-65
2021/11/21 00:41:57;;;;;;;14.00;10.73;;;;;;;;;;10312106;28;20060;-65
2021/11/21 00:46:55;;;;;;;16.23;11.13;;;;;;;;;;10295392;28;20084;-65
2021/11/21 00:51:55;;;;;;;12.80;11.43;;;;;;;;;;10315454;28;20076;-65
2021/11/21 00:56:54;;;;;;;12.48;10.55;;;;;;;;;;10306602;28;20155;-65
2021/11/21 01:01:53;;;;;;;13.18;11.73;;;;;;;;;;10295132;28;20080;-65
2021/11/21 01:06:51;;;;;;;12.35;10.27;;;;;;;;;;10303273;28;20068;-65
2021/11/21 01:11:51;;;;;;;12.30;10.90;;;;;;;;;;10310866;28;20489;-65
2021/11/21 01:16:49;;;;;;;16.23;13.30;;;;;;;;;;10293383;28;20076;-65
2021/11/21 01:21:47;;;;;;;12.48;11.18;;;;;;;;;;10312505;28;20064;-65
2021/11/21 01:26:46;;;;;;;11.25;9.95;;;;;;;;;;10309316;28;20073;-65
2021/11/21 01:31:47;;;;;;;11.60;10.40;;;;;;;;;;10302768;28;20274;-65
2021/11/21 01:36:46;;;;;;;11.45;10.13;;;;;;;;;;10307378;28;20088;-64
2021/11/21 01:41:44;;;;;;;12.30;10.63;;;;;;;;;;10297247;28;20065;-65
2021/11/21 01:46:43;;;;;;;14.40;10.30;;;;;;;;;;10292962;28;20090;-64
2021/11/21 01:51:43;;;;;;;15.70;9.98;;;;;;;;;;10292874;28;20064;-65
2021/11/21 01:56:43;;;;;;;14.65;11.18;;;;;;;;;;10302750;28;20151;-65
2021/11/21 02:01:41;;;;;;;14.00;10.63;;;;;;;;;;10307471;28;20557;-64
2021/11/21 02:06:39;;;;;;;10.20;9.18;;;;;;;;;;10292734;28;20548;-65
2021/11/21 02:11:39;;;;;;;11.82;9.93;;;;;;;;;;10291024;28;20064;-65
2021/11/21 02:16:37;;;;;;;13.88;10.30;;;;;;;;;;10292265;28;20064;-65
2021/11/21 02:21:37;;;;;;;13.52;11.45;;;;;;;;;;10308608;28;20076;-65
2021/11/21 02:26:35;;;;;;;12.75;11.32;;;;;;;;;;10308734;28;20072;-64
2021/11/21 02:31:34;;;;;;;13.80;12.07;;;;;;;;;;10298827;28;20064;-65
2021/11/21 02:36:32;;;;;;;12.00;10.73;;;;;;;;;;10307287;28;20041;-65
2021/11/21 02:41:32;;;;;;;11.93;10.73;;;;;;;;;;10307879;28;20080;-65
2021/11/21 02:46:31;;;;;;;13.57;10.93;;;;;;;;;;10278495;28;20067;-65
2021/11/21 02:51:30;;;;;;;12.30;11.00;;;;;;;;;;10296686;28;20064;-65
2021/11/21 02:56:29;;;;;;;11.48;10.27;;;;;;;;;;10290777;28;20064;-64
2021/11/21 03:01:28;;;;;;;11.50;10.25;;;;;;;;;;10291529;28;20076;-65
2021/11/21 03:06:29;;;;;;;11.88;10.43;;;;;;;;;;10301844;28;20075;-65
2021/11/21 03:11:29;;;;;;;12.90;11.50;;;;;;;;;;10305198;28;20517;-64
2021/11/21 03:16:29;;;;;;;12.75;11.45;;;;;;;;;;10305542;28;20068;-65
2021/11/21 03:21:27;;;;;;;13.15;11.50;;;;;;;;;;10290232;28;20466;-65
2021/11/21 03:26:29;;;;;;;14.93;12.50;;;;;;;;;;10294392;28;20108;-64
2021/11/21 03:31:27;;;;;;;14.07;11.55;;;;;;;;;;10289810;28;20478;-65
2021/11/21 03:36:27;;;;;;;11.32;10.10;;;;;;;;;;10292108;28;20476;-64
2021/11/21 03:41:26;;;;;;;16.80;11.05;;;;;;;;;;10288006;28;20448;-64
2021/11/21 03:46:24;;;;;;;16.27;13.93;;;;;;;;;;10312171;28;20083;-64
2021/11/21 03:51:23;;;;;;;12.77;11.40;;;;;;;;;;10288051;28;20516;-65
2021/11/21 03:56:23;;;;;;;12.20;10.90;;;;;;;;;;10297426;28;20080;-64
2021/11/21 04:01:21;;;;;;;13.52;11.15;;;;;;;;;;10288564;28;20065;-65
2021/11/21 04:06:20;;;;;;;15.48;13.25;;;;;;;;;;10300629;28;20482;-65
2021/11/21 04:11:18;;;;;;;14.90;13.40;;;;;;;;;;10304034;28;20064;-65
2021/11/21 04:16:18;;;;;;;18.52;14.88;;;;;;;;;;10291045;28;20073;-64
2021/11/21 04:21:17;;;;;;;12.38;11.00;;;;;;;;;;10302873;28;20071;-64
2021/11/21 04:26:16;;;;;;;14.15;11.13;;;;;;;;;;10307434;28;20079;-64
2021/11/21 04:31:14;;;;;;;14.52;11.02;;;;;;;;;;10284034;28;20465;-64
2021/11/21 04:36:14;;;;;;;12.10;10.80;;;;;;;;;;10295423;28;20083;-64
2021/11/21 04:41:12;;;;;;;12.70;11.40;;;;;;;;;;10280039;28;20081;-64
2021/11/21 04:46:12;;;;;;;14.18;11.57;;;;;;;;;;10285951;28;20061;-64
2021/11/21 04:51:11;;;;;;;12.38;11.07;;;;;;;;;;10291251;28;20068;-64
2021/11/21 04:56:11;;;;;;;12.75;11.40;;;;;;;;;;10287682;28;20457;-64
2021/11/21 05:01:09;;;;;;;11.18;9.93;;;;;;;;;;10277192;28;20073;-64
2021/11/21 05:06:07;;;;;;;14.38;10.85;;;;;;;;;;10291053;28;20068;-64
2021/11/21 05:11:06;;;;;;;15.52;12.95;;;;;;;;;;10280995;28;20064;-64
2021/11/21 05:16:05;;;;;;;13.40;12.05;;;;;;;;;;10279857;28;20060;-64
2021/11/21 05:21:04;;;;;;;14.35;10.50;;;;;;;;;;10279126;28;20079;-65
2021/11/21 05:26:02;;;;;;;12.65;11.30;;;;;;;;;;10292416;28;20297;-64
2021/11/21 05:31:01;;;;;;;14.23;10.85;;;;;;;;;;10275424;28;20151;-65
2021/11/21 05:36:00;;;;;;;16.95;11.40;;;;;;;;;;10282330;28;20072;-65
2021/11/21 05:40:59;;;;;;;14.90;12.82;;;;;;;;;;10276487;28;20076;-65
2021/11/21 05:45:57;;;;;;;14.90;13.40;;;;;;;;;;10276416;28;20063;-65
2021/11/21 05:50:56;;;;;;;17.38;15.25;;;;;;;;;;10294189;28;20076;-64
2021/11/21 05:55:56;;;;;;;14.55;13.02;;;;;;;;;;10276843;28;20517;-64
2021/11/21 06:00:54;;;;;;;18.83;13.43;;;;;;;;;;10275950;28;20123;-64
2021/11/21 06:05:52;;;;;;;13.35;11.75;;;;;;;;;;10293464;28;20075;-64
2021/11/21 06:10:51;;;;;;;20.80;14.63;;;;;;;;;;10295346;28;20112;-64
2021/11/21 06:15:50;;;;;;;15.18;13.15;;;;;;;;;;10276312;28;20068;-64
2021/11/21 06:20:49;;;;;;;17.35;11.93;;;;;;;;;;10282031;28;20084;-64
2021/11/21 06:25:47;;;;;;;16.42;12.35;;;;;;;;;;10277492;28;20091;-64
2021/11/21 06:30:45;;;;;;;16.75;13.27;;;;;;;;;;10294781;28;20071;-65
2021/11/21 06:35:45;;;;;;;17.50;14.98;;;;;;;;;;10280604;28;20080;-64
2021/11/21 06:40:43;;;;;;;36.95;25.05;;;;;;;;;;10274117;28;20081;-64
2021/11/21 06:45:41;;;;;;;14.85;13.23;;;;;;;;;;10274859;28;20068;-64
2021/11/21 06:50:40;;;;;;;14.52;12.27;;;;;;;;;;10278664;28;20075;-64
2021/11/21 06:55:40;;;;;;;16.92;14.63;;;;;;;;;;10276849;28;20072;-64
2021/11/21 07:00:38;;;;;;;18.77;15.65;;;;;;;;;;10274902;28;20080;-65
2021/11/21 07:05:36;;;;;;;17.38;14.40;;;;;;;;;;10282866;28;20056;-65
2021/11/21 07:10:35;;;;;;;19.60;14.35;;;;;;;;;;10299764;28;20063;-63
2021/11/21 07:15:34;;;;;;;20.17;15.27;;;;;;;;;;10276247;28;20077;-63
2021/11/21 07:20:33;;;;;;;14.73;13.07;;;;;;;;;;10294519;28;20099;-64
2021/11/21 07:25:33;;;;;;;18.02;13.60;;;;;;;;;;10290862;28;20099;-63
2021/11/21 07:30:31;;;;;;;19.17;14.52;;;;;;;;;;10288703;28;20087;-64
2021/11/21 07:35:31;;;;;;;29.30;18.63;;;;;;;;;;10291539;28;20068;-64
2021/11/21 07:40:29;;;;;;;24.10;18.55;;;;;;;;;;10288700;28;20060;-64
2021/11/21 07:45:27;;;;;;;21.88;16.63;;;;;;;;;;10289991;28;20056;-64
2021/11/21 07:50:25;;;;;;;29.88;23.05;;;;;;;;;;10282065;28;20768;-64
2021/11/21 07:55:25;;;;;;;29.55;17.45;;;;;;;;;;10283747;28;20139;-64
2021/11/21 08:00:23;;;;;;;21.70;15.38;;;;;;;;;;10285039;28;20075;-64
2021/11/21 08:05:22;;;;;;;22.67;17.25;;;;;;;;;;10287291;28;20076;-64
2021/11/21 08:10:20;;;;;;;35.85;23.50;;;;;;;;;;10297628;28;20064;-64
2021/11/21 08:15:20;;;;;;;24.95;20.40;;;;;;;;;;10318672;28;20072;-65
2021/11/21 08:20:18;;;;;;;18.15;15.20;;;;;;;;;;10293468;28;20071;-64
2021/11/21 08:25:16;;;;;;;25.52;20.58;;;;;;;;;;10307163;28;20466;-65
2021/11/21 08:30:15;;;;;;;22.30;19.25;;;;;;;;;;10301557;28;20060;-65
2021/11/21 08:35:15;;;;;;;18.40;16.17;;;;;;;;;;10290738;28;20084;-65
2021/11/21 08:40:13;;;;;;;23.80;15.70;;;;;;;;;;10298593;28;20060;-65
2021/11/21 08:45:11;;;;;;;20.27;15.07;;;;;;;;;;10318385;28;20068;-65
2021/11/21 08:50:10;;;;;;;25.73;16.23;;;;;;;;;;10290396;28;20072;-65
2021/11/21 08:55:13;;;;;;;17.88;13.75;;;;;;;;;;10293902;28;20075;-65
2021/11/21 09:00:13;;;;;;;17.85;15.25;;;;;;;;;;10291692;28;20076;-65
2021/11/21 09:05:11;;;;;;;21.80;14.70;;;;;;;;;;10293936;28;20079;-65
2021/11/21 09:10:12;;;;;;;18.08;14.65;;;;;;;;;;10292752;28;20060;-65
2021/11/21 09:15:14;;;;;;;18.73;14.65;;;;;;;;;;10293247;28;20091;-65
2021/11/21 09:20:13;;;;;;;25.80;18.23;;;;;;;;;;10291582;28;20337;-65
2021/11/21 09:25:11;;;;;;;23.83;17.35;;;;;;;;;;10291902;28;20068;-65
2021/11/21 09:30:10;;;;;;;20.02;16.65;;;;;;;;;;10291676;28;20056;-65
2021/11/21 09:35:10;;;;;;;14.50;12.73;;;;;;;;;;10305406;28;20482;-63
2021/11/21 09:40:10;;;;;;;16.30;12.38;;;;;;;;;;10305813;28;20080;-64
2021/11/21 09:45:10;;;;;;;16.55;14.38;;;;;;;;;;10313523;28;20079;-64
2021/11/21 09:50:11;;;;;;;13.10;10.93;;;;;;;;;;10291692;28;20068;-65
2021/11/21 09:55:09;;;;;;;13.25;10.88;;;;;;;;;;10298097;28;20076;-64
2021/11/21 10:00:13;;;;;;;14.70;11.68;;;;;;;;;;10289607;28;20068;-64
2021/11/21 10:05:16;;;;;;;21.88;17.73;;;;;;;;;;10291290;28;20072;-64
2021/11/21 10:10:17;;;;;;;11.05;9.95;;;;;;;;;;10289395;28;20489;-64
2021/11/21 10:15:17;;;;;;;15.88;11.95;;;;;;;;;;10290632;28;20068;-64
2021/11/21 10:20:19;;;;;;;10.82;9.35;;;;;;;;;;10299461;28;20503;-64
2021/11/21 10:25:40;;;;;;;19.40;17.40;;;;;;;;;;10314240;28;20162;-64
2021/11/21 10:30:57;;;;;;;29.17;26.08;;;;;;;;;;10289024;28;20607;-64
2021/11/21 10:35:57;;;;;;;16.77;15.07;;;;;;;;;;10311031;28;20543;-65
2021/11/21 10:40:56;;;;;;;15.85;12.55;;;;;;;;;;10288442;28;20076;-65
2021/11/21 10:45:54;;;;;;;16.23;13.75;;;;;;;;;;10291849;28;20071;-65
2021/11/21 10:50:53;;;;;;;25.73;17.25;;;;;;;;;;10296960;28;20103;-65
2021/11/21 10:56:11;;;;;;;21.23;17.40;;;;;;;;;;10310638;28;20075;-65
2021/11/21 11:01:19;;;;;;;13.80;12.18;;;;;;;;;;10285803;28;20080;-65
2021/11/21 11:06:26;;;;;;;17.55;15.07;;;;;;;;;;10285247;28;20064;-65
2021/11/21 11:11:26;;;;;;;15.25;12.80;;;;;;;;;;10286389;28;20067;-65
2021/11/21 11:16:25;;;;;;;18.23;16.30;;;;;;;;;;10282603;28;20069;-65
2021/11/21 11:21:23;;;;;;;17.75;14.00;;;;;;;;;;10276793;28;20068;-64
2021/11/21 11:26:25;;;;;;;15.85;13.52;;;;;;;;;;10276244;28;20091;-64
2021/11/21 11:31:25;;;;;;;18.35;15.40;;;;;;;;;;10275812;28;20072;-63
2021/11/21 11:36:25;;;;;;;19.33;12.15;;;;;;;;;;10271779;28;20083;-64
2021/11/21 11:41:29;;;;;;;12.10;9.27;;;;;;;;;;10287778;28;20581;-64
2021/11/21 11:46:31;;;;;;;13.43;10.95;;;;;;;;;;10281723;28;20524;-64
2021/11/21 11:51:52;;;;;;;9.27;8.32;;;;;;;;;;10277711;28;20065;-64
2021/11/21 11:56:55;;;;;;;13.15;11.00;;;;;;;;;;10281283;28;20513;-64
2021/11/21 12:01:55;;;;;;;19.50;13.27;;;;;;;;;;10277108;28;20068;-64
2021/11/21 12:06:58;;;;;;;21.60;15.25;;;;;;;;;;10290976;28;20449;-64
2021/11/21 12:11:59;;;;;;;13.90;11.32;;;;;;;;;;10285206;28;20076;-64
2021/11/21 12:16:59;;;;;;;13.45;10.13;;;;;;;;;;10278650;28;20075;-63
2021/11/21 12:22:01;;;;;;;10.65;8.15;;;;;;;;;;10275675;28;20091;-63
2021/11/21 12:27:16;;;;;;;10.48;9.43;;;;;;;;;;10286206;28;20073;-64
2021/11/21 12:32:22;;;;;;;12.43;10.73;;;;;;;;;;10269919;28;20073;-64
2021/11/21 12:37:22;;;;;;;11.32;10.13;;;;;;;;;;10286933;28;20482;-64
2021/11/21 12:42:26;;;;;;;20.70;15.00;;;;;;;;;;10272761;28;20069;-64
2021/11/21 12:47:24;;;;;;;17.73;14.50;;;;;;;;;;10288910;28;20095;-64
2021/11/21 12:52:23;;;;;;;13.65;11.25;;;;;;;;;;10272966;28;20061;-65
2021/11/21 12:57:21;;;;;;;12.75;11.40;;;;;;;;;;10295031;28;20083;-65
2021/11/21 13:02:22;;;;;;;12.27;10.48;;;;;;;;;;10289884;28;20069;-65
2021/11/21 13:07:24;;;;;;;18.70;14.32;;;;;;;;;;10296540;28;20068;-65
2021/11/21 13:12:45;;;;;;;12.20;9.85;;;;;;;;;;10301856;28;20071;-65
2021/11/21 13:17:45;;;;;;;15.25;13.32;;;;;;;;;;10317446;28;20526;-65
2021/11/21 13:23:02;;;;;;;17.55;15.70;;;;;;;;;;10282622;28;20079;-65
2021/11/21 13:28:19;;;;;;;20.88;16.35;;;;;;;;;;10291393;28;20079;-65
2021/11/21 13:33:20;;;;;;;21.52;15.45;;;;;;;;;;10280537;28;20107;-65
2021/11/21 13:38:19;;;;;;;26.25;19.50;;;;;;;;;;10291444;28;20532;-65
2021/11/21 13:43:17;;;;;;;16.17;12.93;;;;;;;;;;10280005;28;20072;-65
2021/11/21 13:48:30;;;;;;;23.98;18.52;;;;;;;;;;10299046;28;20068;-66
2021/11/21 13:53:39;;;;;;;18.23;15.25;;;;;;;;;;10299275;28;20072;-65
2021/11/21 13:58:37;;;;;;;30.83;22.30;;;;;;;;;;10298454;28;20072;-64
2021/11/21 14:03:39;;;;;;;25.77;20.73;;;;;;;;;;10283945;28;20087;-65
2021/11/21 14:08:41;;;;;;;21.55;17.63;;;;;;;;;;10294177;28;20279;-65
2021/11/21 14:13:41;;;;;;;34.90;27.35;;;;;;;;;;10280551;28;20470;-64
2021/11/21 14:18:43;;;;;;;32.25;23.80;;;;;;;;;;10288296;28;20176;-64
2021/11/21 14:23:41;;;;;;;67.25;44.70;;;;;;;;;;10280117;28;20083;-64
2021/11/21 14:28:43;;;;;;;75.82;50.88;;;;;;;;;;10288249;28;20068;-65
2021/11/21 14:33:44;;;;;;;87.95;60.65;;;;;;;;;;10279523;28;20072;-64
2021/11/21 14:38:54;;;;;;;144.18;95.03;;;;;;;;;;10288006;28;20083;-64
2021/11/21 14:43:52;;;;;;;226.98;136.98;;;;;;;;;;10292810;28;20078;-65
2021/11/21 14:48:52;;;;;;;202.85;120.65;;;;;;;;;;10286051;28;20068;-65
2021/11/21 14:53:54;;;;;;;194.68;123.38;;;;;;;;;;10296793;28;20083;-65
2021/11/21 14:58:52;;;;;;;240.93;155.18;;;;;;;;;;10305859;28;20068;-65
2021/11/21 15:03:52;;;;;;;333.25;214.73;;;;;;;;;;10296417;28;20079;-65
2021/11/21 15:08:51;;;;;;;218.55;143.10;;;;;;;;;;10295124;28;20533;-65
2021/11/21 15:13:49;;;;;;;102.30;74.07;;;;;;;;;;10277961;28;20061;-64
2021/11/21 15:18:48;;;;;;;120.07;74.40;;;;;;;;;;10286265;28;20063;-64
2021/11/21 15:23:48;;;;;;;152.43;84.15;;;;;;;;;;10277680;28;20071;-64
2021/11/21 15:28:47;;;;;;;197.77;108.38;;;;;;;;;;10284728;28;20525;-65
2021/11/21 15:33:46;;;;;;;272.13;151.07;;;;;;;;;;10282878;28;20091;-64
2021/11/21 15:38:45;;;;;;;177.68;109.90;;;;;;;;;;10275760;28;20438;-64
2021/11/21 15:43:45;;;;;;;250.18;148.27;;;;;;;;;;10284782;28;20077;-64
2021/11/21 15:48:43;;;;;;;163.82;114.82;;;;;;;;;;10269369;28;20064;-66
2021/11/21 15:53:42;;;;;;;361.98;197.95;;;;;;;;;;10276128;28;20063;-63
2021/11/21 15:58:40;;;;;;;301.08;150.07;;;;;;;;;;10271937;28;20076;-64
2021/11/21 16:03:40;;;;;;;206.68;117.30;;;;;;;;;;10279639;28;20095;-64
2021/11/21 16:08:38;;;;;;;188.38;119.80;;;;;;;;;;10275623;28;20073;-63
2021/11/21 16:13:37;;;;;;;124.68;94.40;;;;;;;;;;10278254;28;20302;-65
2021/11/21 16:18:36;;;;;;;98.35;77.43;;;;;;;;;;10286434;28;20510;-64
2021/11/21 16:23:52;;;;;;;80.18;65.25;;;;;;;;;;10275930;28;20501;-63
2021/11/21 16:28:51;;;;;;;74.25;58.72;;;;;;;;;;10276333;28;20069;-63
2021/11/21 16:33:50;;;;;;;87.47;66.78;;;;;;;;;;10298611;28;20081;-64
2021/11/21 16:38:49;;;;;;;73.75;60.45;;;;;;;;;;10291527;28;20502;-64
2021/11/21 16:43:49;;;;;;;66.43;51.30;;;;;;;;;;10289202;28;20473;-64
2021/11/21 16:48:47;;;;;;;53.85;40.70;;;;;;;;;;10282260;28;20064;-65
2021/11/21 16:53:46;;;;;;;42.17;32.75;;;;;;;;;;10289034;28;20443;-64
2021/11/21 16:58:45;;;;;;;37.28;26.38;;;;;;;;;;10277105;28;20068;-64
2021/11/21 17:03:44;;;;;;;52.80;37.17;;;;;;;;;;10277055;28;20073;-64
2021/11/21 17:08:43;;;;;;;66.53;49.88;;;;;;;;;;10278873;28;20072;-64
2021/11/21 17:13:41;;;;;;;55.35;43.72;;;;;;;;;;10272698;28;20317;-64
2021/11/21 17:18:39;;;;;;;45.42;38.35;;;;;;;;;;10280141;28;20064;-64
2021/11/21 17:23:39;;;;;;;50.85;40.65;;;;;;;;;;10297414;28;20474;-65
2021/11/21 17:28:37;;;;;;;53.45;45.00;;;;;;;;;;10314722;28;20619;-65
2021/11/21 17:33:36;;;;;;;36.22;31.67;;;;;;;;;;10297295;28;20107;-66
2021/11/21 17:38:34;;;;;;;56.35;50.28;;;;;;;;;;10280233;28;20064;-64
2021/11/21 17:43:34;;;;;;;42.20;33.20;;;;;;;;;;10281343;28;20454;-64
2021/11/21 17:48:33;;;;;;;50.30;37.53;;;;;;;;;;10284608;28;20529;-64
2021/11/21 17:53:32;;;;;;;55.50;44.38;;;;;;;;;;10279158;28;20064;-64
2021/11/21 17:58:30;;;;;;;108.20;86.32;;;;;;;;;;10282616;28;20072;-65
2021/11/21 18:03:30;;;;;;;46.35;38.97;;;;;;;;;;10283116;28;20553;-65
2021/11/21 18:08:31;;;;;;;48.55;41.10;;;;;;;;;;10275784;28;20067;-65
2021/11/21 18:13:30;;;;;;;30.83;27.30;;;;;;;;;;10274341;28;20186;-65
2021/11/21 18:18:30;;;;;;;36.03;31.92;;;;;;;;;;10291286;28;20450;-65
2021/11/21 18:23:28;;;;;;;42.30;35.90;;;;;;;;;;10272748;28;20517;-65
2021/11/21 18:28:26;;;;;;;30.63;26.30;;;;;;;;;;10274434;28;20084;-65
2021/11/21 18:33:25;;;;;;;27.55;24.10;;;;;;;;;;10301799;28;20076;-65
2021/11/21 18:38:25;;;;;;;25.73;22.50;;;;;;;;;;10288699;28;20071;-65
2021/11/21 18:43:23;;;;;;;44.90;34.53;;;;;;;;;;10273921;28;20069;-65
2021/11/21 18:48:22;;;;;;;34.00;28.02;;;;;;;;;;10272424;28;20087;-66
2021/11/21 18:53:21;;;;;;;23.60;20.38;;;;;;;;;;10289506;28;20536;-65
2021/11/21 18:58:21;;;;;;;29.23;23.95;;;;;;;;;;10283006;28;20080;-65
2021/11/21 19:03:22;;;;;;;26.85;22.75;;;;;;;;;;10272477;28;20458;-66
2021/11/21 19:08:21;;;;;;;30.23;24.55;;;;;;;;;;10271983;28;20533;-66
2021/11/21 19:13:20;;;;;;;37.95;31.42;;;;;;;;;;10274197;28;20083;-66
2021/11/21 19:18:19;;;;;;;32.35;26.25;;;;;;;;;;10283063;28;20478;-64
2021/11/21 19:23:17;;;;;;;37.00;27.77;;;;;;;;;;10279881;28;20072;-65
2021/11/21 19:28:16;;;;;;;31.52;25.83;;;;;;;;;;10280215;28;20072;-65
2021/11/21 19:33:16;;;;;;;75.88;55.25;;;;;;;;;;10277631;28;20061;-64
2021/11/21 19:38:14;;;;;;;92.40;64.57;;;;;;;;;;10278463;28;20071;-63
2021/11/21 19:43:13;;;;;;;79.13;52.30;;;;;;;;;;10281385;28;20574;-64
2021/11/21 19:48:12;;;;;;;27.17;20.80;;;;;;;;;;10282160;28;20115;-65
2021/11/21 19:53:12;;;;;;;20.35;16.88;;;;;;;;;;10285492;28;20087;-63
2021/11/21 19:58:11;;;;;;;33.08;25.85;;;;;;;;;;10288182;28;20477;-63
2021/11/21 20:03:09;;;;;;;25.05;22.13;;;;;;;;;;10288027;28;20083;-63
2021/11/21 20:08:07;;;;;;;29.35;24.45;;;;;;;;;;10297025;28;20072;-64
2021/11/21 20:13:07;;;;;;;27.60;22.23;;;;;;;;;;10286587;28;20568;-64
2021/11/21 20:18:06;;;;;;;42.75;30.20;;;;;;;;;;10292850;28;20064;-68
2021/11/21 20:23:05;;;;;;;21.15;17.80;;;;;;;;;;10285027;28;20457;-63
2021/11/21 20:28:05;;;;;;;25.95;17.92;;;;;;;;;;10283043;28;20484;-66
2021/11/21 20:38:36;;;;;;;74.70;49.58;;;;;;;;;;10300706;28;20471;-65
2021/11/21 20:43:35;;;;;;;33.80;25.63;;;;;;;;;;10283106;28;20077;-66
2021/11/21 20:48:34;;;;;;;48.22;33.95;;;;;;;;;;10288167;28;20080;-64
2021/11/21 20:53:33;;;;;;;101.63;65.53;;;;;;;;;;10288787;28;20064;-65
2021/11/21 20:58:31;;;;;;;48.30;35.63;;;;;;;;;;10288068;28;20083;-65
2021/11/21 21:03:29;;;;;;;39.08;29.55;;;;;;;;;;10300879;28;20481;-66
2021/11/21 21:08:29;;;;;;;55.08;36.00;;;;;;;;;;10290963;28;20076;-65
2021/11/21 21:13:28;;;;;;;41.30;30.25;;;;;;;;;;10291461;28;20079;-65
2021/11/21 21:18:26;;;;;;;34.88;29.00;;;;;;;;;;10281222;28;20573;-64
2021/11/21 21:23:24;;;;;;;45.35;33.15;;;;;;;;;;10298503;28;20465;-66
2021/11/21 21:28:24;;;;;;;124.30;72.70;;;;;;;;;;10298555;28;20457;-63
2021/11/21 21:33:23;;;;;;;75.25;50.97;;;;;;;;;;10293802;28;20079;-65
2021/11/21 21:38:21;;;;;;;34.83;25.17;;;;;;;;;;10296741;28;20070;-66
2021/11/21 21:43:20;;;;;;;27.15;23.33;;;;;;;;;;10290544;28;20622;-64
2021/11/21 21:48:20;;;;;;;26.35;21.58;;;;;;;;;;10293239;28;20063;-64
2021/11/21 21:53:19;;;;;;;38.72;29.80;;;;;;;;;;10280012;28;20485;-65
2021/11/21 21:58:18;;;;;;;25.60;20.05;;;;;;;;;;10274625;28;20075;-65
2021/11/21 22:03:16;;;;;;;25.35;20.02;;;;;;;;;;10274515;28;20541;-65
2021/11/21 22:08:17;;;;;;;22.25;16.65;;;;;;;;;;10276799;28;20075;-65
2021/11/21 22:13:16;;;;;;;44.65;28.65;;;;;;;;;;10281677;28;20060;-65
2021/11/21 22:18:15;;;;;;;47.88;34.85;;;;;;;;;;10284285;28;20053;-65
2021/11/21 22:23:13;;;;;;;40.75;28.63;;;;;;;;;;10280605;28;20309;-65
2021/11/21 22:28:13;;;;;;;104.22;63.03;;;;;;;;;;10283792;28;20068;-65
2021/11/21 22:33:11;;;;;;;80.80;52.40;;;;;;;;;;10285591;28;20083;-65
2021/11/21 22:38:10;;;;;;;92.55;57.97;;;;;;;;;;10282927;28;20482;-65
2021/11/21 22:43:08;;;;;;;68.03;42.13;;;;;;;;;;10273336;28;20076;-65
2021/11/21 22:48:08;;;;;;;63.00;46.25;;;;;;;;;;10274234;28;20537;-66
2021/11/21 22:53:07;;;;;;;50.78;35.75;;;;;;;;;;10282175;28;20500;-65
2021/11/21 22:58:05;;;;;;;33.80;23.83;;;;;;;;;;10271654;28;20056;-65
2021/11/21 23:03:04;;;;;;;18.67;16.60;;;;;;;;;;10271003;28;20156;-65
2021/11/21 23:08:04;;;;;;;30.92;26.13;;;;;;;;;;10271144;28;20446;-65
2021/11/21 23:13:03;;;;;;;44.75;33.13;;;;;;;;;;10270688;28;20068;-65
2021/11/21 23:18:02;;;;;;;38.53;25.60;;;;;;;;;;10270230;28;20071;-65
2021/11/21 23:23:00;;;;;;;40.53;27.58;;;;;;;;;;10270201;28;20080;-64
2021/11/21 23:28:00;;;;;;;52.78;35.85;;;;;;;;;;10270336;28;20072;-65
2021/11/21 23:32:58;;;;;;;62.38;41.72;;;;;;;;;;10270042;28;20455;-65
2021/11/21 23:37:57;;;;;;;60.95;39.88;;;;;;;;;;10268888;28;20156;-66
2021/11/21 23:42:55;;;;;;;68.38;44.53;;;;;;;;;;10280528;28;20536;-65
2021/11/21 23:47:55;;;;;;;55.60;35.20;;;;;;;;;;10293299;28;20073;-65
2021/11/21 23:52:54;;;;;;;47.70;33.15;;;;;;;;;;10281419;28;20079;-65
2021/11/21 23:57:52;;;;;;;40.03;28.83;;;;;;;;;;10297514;28;20061;-65
